sensor_id;sensor_type;location;lat;lon;timestamp;P1;durP1;ratioP1;P2;durP2;ratioP2
27031;SDS011;14580;52.918;9.214;2023-03-23T00:01:38;16.47;;;8.43;;
27031;SDS011;14580;52.918;9.214;2023-03-23T00:05:03;14.93;;;8.20;;
27031;SDS011;14580;52.918;9.214;2023-03-23T00:08:32;11.47;;;8.40;;
27031;SDS011;14580;52.918;9.214;2023-03-23T00:11:59;12.63;;;8.40;;
27031;SDS011;14580;52.918;9.214;2023-03-23T00:15:27;21.30;;;7.87;;
27031;SDS011;14580;52.918;9.214;2023-03-23T00:18:55;12.17;;;8.43;;
27031;SDS011;14580;52.918;9.214;2023-03-23T00:22:21;14.23;;;7.97;;
27031;SDS011;14580;52.918;9.214;2023-03-23T00:25:49;9.80;;;7.30;;
27031;SDS011;14580;52.918;9.214;2023-03-23T00:29:17;12.77;;;8.27;;
27031;SDS011;14580;52.918;9.214;2023-03-23T00:32:43;12.83;;;7.07;;
27031;SDS011;14580;52.918;9.214;2023-03-23T00:36:08;10.80;;;7.50;;
27031;SDS011;14580;52.918;9.214;2023-03-23T00:39:37;12.37;;;7.50;;
27031;SDS011;14580;52.918;9.214;2023-03-23T00:43:03;10.00;;;6.83;;
27031;SDS011;14580;52.918;9.214;2023-03-23T00:46:27;8.87;;;6.83;;
27031;SDS011;14580;52.918;9.214;2023-03-23T00:49:52;10.43;;;7.10;;
27031;SDS011;14580;52.918;9.214;2023-03-23T00:53:18;11.07;;;7.00;;
27031;SDS011;14580;52.918;9.214;2023-03-23T00:56:43;9.70;;;7.23;;
27031;SDS011;14580;52.918;9.214;2023-03-23T01:00:08;11.00;;;6.80;;
27031;SDS011;14580;52.918;9.214;2023-03-23T01:03:34;10.57;;;7.07;;
27031;SDS011;14580;52.918;9.214;2023-03-23T01:07:01;11.73;;;7.27;;
27031;SDS011;14580;52.918;9.214;2023-03-23T01:10:27;10.10;;;7.47;;
27031;SDS011;14580;52.918;9.214;2023-03-23T01:13:52;10.53;;;6.90;;
27031;SDS011;14580;52.918;9.214;2023-03-23T01:17:17;10.83;;;7.47;;
27031;SDS011;14580;52.918;9.214;2023-03-23T01:20:42;11.33;;;7.33;;
27031;SDS011;14580;52.918;9.214;2023-03-23T01:24:07;11.20;;;7.70;;
27031;SDS011;14580;52.918;9.214;2023-03-23T01:27:32;11.53;;;7.30;;
27031;SDS011;14580;52.918;9.214;2023-03-23T01:31:04;7.73;;;6.77;;
27031;SDS011;14580;52.918;9.214;2023-03-23T01:34:30;7.97;;;6.60;;
27031;SDS011;14580;52.918;9.214;2023-03-23T01:37:55;11.43;;;7.17;;
27031;SDS011;14580;52.918;9.214;2023-03-23T01:41:21;10.03;;;6.80;;
27031;SDS011;14580;52.918;9.214;2023-03-23T01:48:47;10.20;;;7.10;;
27031;SDS011;14580;52.918;9.214;2023-03-23T01:52:15;9.93;;;7.20;;
27031;SDS011;14580;52.918;9.214;2023-03-23T01:55:52;15.20;;;7.73;;
27031;SDS011;14580;52.918;9.214;2023-03-23T01:59:26;8.97;;;6.87;;
27031;SDS011;14580;52.918;9.214;2023-03-23T02:02:52;10.37;;;7.20;;
27031;SDS011;14580;52.918;9.214;2023-03-23T02:06:20;11.10;;;7.03;;
27031;SDS011;14580;52.918;9.214;2023-03-23T02:09:45;11.27;;;7.17;;
27031;SDS011;14580;52.918;9.214;2023-03-23T02:13:10;12.90;;;6.83;;
27031;SDS011;14580;52.918;9.214;2023-03-23T02:29:07;9.30;;;6.67;;
27031;SDS011;14580;52.918;9.214;2023-03-23T02:37:01;9.63;;;6.57;;
27031;SDS011;14580;52.918;9.214;2023-03-23T02:40:31;10.07;;;7.30;;
27031;SDS011;14580;52.918;9.214;2023-03-23T02:44:33;8.93;;;7.80;;
27031;SDS011;14580;52.918;9.214;2023-03-23T02:48:01;10.33;;;7.50;;
27031;SDS011;14580;52.918;9.214;2023-03-23T02:51:28;9.60;;;7.53;;
27031;SDS011;14580;52.918;9.214;2023-03-23T02:54:56;8.93;;;8.00;;
27031;SDS011;14580;52.918;9.214;2023-03-23T02:58:22;10.67;;;8.33;;
27031;SDS011;14580;52.918;9.214;2023-03-23T03:02:33;16.63;;;8.67;;
27031;SDS011;14580;52.918;9.214;2023-03-23T03:09:58;13.03;;;8.27;;
27031;SDS011;14580;52.918;9.214;2023-03-23T03:13:41;10.10;;;7.77;;
27031;SDS011;14580;52.918;9.214;2023-03-23T03:17:49;9.60;;;7.80;;
27031;SDS011;14580;52.918;9.214;2023-03-23T03:21:28;9.17;;;7.70;;
27031;SDS011;14580;52.918;9.214;2023-03-23T03:24:57;9.97;;;7.83;;
27031;SDS011;14580;52.918;9.214;2023-03-23T03:28:23;10.37;;;7.83;;
27031;SDS011;14580;52.918;9.214;2023-03-23T03:31:51;8.90;;;7.97;;
27031;SDS011;14580;52.918;9.214;2023-03-23T03:35:19;10.63;;;8.13;;
27031;SDS011;14580;52.918;9.214;2023-03-23T03:38:51;10.87;;;7.70;;
27031;SDS011;14580;52.918;9.214;2023-03-23T03:42:16;10.03;;;8.33;;
27031;SDS011;14580;52.918;9.214;2023-03-23T03:45:44;11.10;;;7.43;;
27031;SDS011;14580;52.918;9.214;2023-03-23T03:49:12;9.13;;;7.10;;
27031;SDS011;14580;52.918;9.214;2023-03-23T03:52:37;11.27;;;7.17;;
27031;SDS011;14580;52.918;9.214;2023-03-23T03:56:05;7.83;;;6.67;;
27031;SDS011;14580;52.918;9.214;2023-03-23T03:59:31;8.90;;;6.90;;
27031;SDS011;14580;52.918;9.214;2023-03-23T04:02:56;9.23;;;6.70;;
27031;SDS011;14580;52.918;9.214;2023-03-23T04:06:21;10.13;;;6.77;;
27031;SDS011;14580;52.918;9.214;2023-03-23T04:09:46;7.23;;;5.60;;
27031;SDS011;14580;52.918;9.214;2023-03-23T04:13:12;7.40;;;5.47;;
27031;SDS011;14580;52.918;9.214;2023-03-23T04:16:36;8.67;;;5.57;;
27031;SDS011;14580;52.918;9.214;2023-03-23T04:20:02;6.10;;;5.43;;
27031;SDS011;14580;52.918;9.214;2023-03-23T04:23:34;6.20;;;5.10;;
27031;SDS011;14580;52.918;9.214;2023-03-23T04:27:02;7.53;;;5.10;;
27031;SDS011;14580;52.918;9.214;2023-03-23T04:30:27;6.90;;;4.97;;
27031;SDS011;14580;52.918;9.214;2023-03-23T04:33:52;7.90;;;5.40;;
27031;SDS011;14580;52.918;9.214;2023-03-23T04:37:17;8.40;;;4.73;;
27031;SDS011;14580;52.918;9.214;2023-03-23T04:40:45;5.83;;;4.73;;
27031;SDS011;14580;52.918;9.214;2023-03-23T04:44:14;4.80;;;3.87;;
27031;SDS011;14580;52.918;9.214;2023-03-23T04:47:42;4.70;;;3.67;;
27031;SDS011;14580;52.918;9.214;2023-03-23T04:51:07;5.60;;;4.00;;
27031;SDS011;14580;52.918;9.214;2023-03-23T04:54:32;5.97;;;4.13;;
27031;SDS011;14580;52.918;9.214;2023-03-23T04:58:01;6.23;;;4.17;;
27031;SDS011;14580;52.918;9.214;2023-03-23T05:01:31;8.60;;;4.00;;
27031;SDS011;14580;52.918;9.214;2023-03-23T05:04:56;4.03;;;3.30;;
27031;SDS011;14580;52.918;9.214;2023-03-23T05:08:21;7.07;;;4.30;;
27031;SDS011;14580;52.918;9.214;2023-03-23T05:11:47;3.47;;;3.13;;
27031;SDS011;14580;52.918;9.214;2023-03-23T05:15:13;3.90;;;3.43;;
27031;SDS011;14580;52.918;9.214;2023-03-23T05:18:38;4.23;;;3.07;;
27031;SDS011;14580;52.918;9.214;2023-03-23T05:22:06;4.70;;;3.10;;
27031;SDS011;14580;52.918;9.214;2023-03-23T05:25:30;3.57;;;3.27;;
27031;SDS011;14580;52.918;9.214;2023-03-23T05:28:55;3.67;;;2.70;;
27031;SDS011;14580;52.918;9.214;2023-03-23T05:32:20;4.03;;;2.80;;
27031;SDS011;14580;52.918;9.214;2023-03-23T05:35:45;3.07;;;2.60;;
27031;SDS011;14580;52.918;9.214;2023-03-23T05:39:11;3.10;;;2.20;;
27031;SDS011;14580;52.918;9.214;2023-03-23T05:42:37;3.47;;;2.30;;
27031;SDS011;14580;52.918;9.214;2023-03-23T05:46:02;2.37;;;2.00;;
27031;SDS011;14580;52.918;9.214;2023-03-23T05:49:28;4.03;;;2.33;;
27031;SDS011;14580;52.918;9.214;2023-03-23T05:52:54;5.67;;;2.30;;
27031;SDS011;14580;52.918;9.214;2023-03-23T05:56:19;2.70;;;2.43;;
27031;SDS011;14580;52.918;9.214;2023-03-23T05:59:46;3.83;;;2.47;;
27031;SDS011;14580;52.918;9.214;2023-03-23T06:07:47;3.17;;;2.23;;
27031;SDS011;14580;52.918;9.214;2023-03-23T06:11:13;4.27;;;2.40;;
27031;SDS011;14580;52.918;9.214;2023-03-23T06:14:38;5.87;;;3.50;;
27031;SDS011;14580;52.918;9.214;2023-03-23T06:18:03;3.27;;;2.90;;
27031;SDS011;14580;52.918;9.214;2023-03-23T06:21:29;4.13;;;3.30;;
27031;SDS011;14580;52.918;9.214;2023-03-23T06:24:55;5.03;;;3.70;;
27031;SDS011;14580;52.918;9.214;2023-03-23T06:28:22;7.27;;;2.97;;
27031;SDS011;14580;52.918;9.214;2023-03-23T06:31:48;5.07;;;3.60;;
27031;SDS011;14580;52.918;9.214;2023-03-23T06:35:16;3.27;;;2.97;;
27031;SDS011;14580;52.918;9.214;2023-03-23T06:38:41;3.83;;;2.53;;
27031;SDS011;14580;52.918;9.214;2023-03-23T06:42:09;5.23;;;2.83;;
27031;SDS011;14580;52.918;9.214;2023-03-23T06:45:34;4.53;;;2.77;;
27031;SDS011;14580;52.918;9.214;2023-03-23T06:48:59;5.33;;;3.43;;
27031;SDS011;14580;52.918;9.214;2023-03-23T06:52:24;3.83;;;3.10;;
27031;SDS011;14580;52.918;9.214;2023-03-23T06:55:50;2.87;;;2.57;;
27031;SDS011;14580;52.918;9.214;2023-03-23T06:59:15;3.87;;;2.77;;
27031;SDS011;14580;52.918;9.214;2023-03-23T07:02:40;3.77;;;3.00;;
27031;SDS011;14580;52.918;9.214;2023-03-23T07:06:06;5.23;;;2.97;;
27031;SDS011;14580;52.918;9.214;2023-03-23T07:09:36;3.30;;;3.00;;
27031;SDS011;14580;52.918;9.214;2023-03-23T07:13:01;4.30;;;2.90;;
27031;SDS011;14580;52.918;9.214;2023-03-23T07:16:25;3.90;;;3.00;;
27031;SDS011;14580;52.918;9.214;2023-03-23T07:19:50;5.17;;;3.50;;
27031;SDS011;14580;52.918;9.214;2023-03-23T07:23:16;4.60;;;3.33;;
27031;SDS011;14580;52.918;9.214;2023-03-23T07:26:41;4.60;;;3.80;;
27031;SDS011;14580;52.918;9.214;2023-03-23T07:30:06;4.13;;;2.67;;
27031;SDS011;14580;52.918;9.214;2023-03-23T07:33:34;3.87;;;3.27;;
27031;SDS011;14580;52.918;9.214;2023-03-23T07:36:59;4.40;;;3.20;;
27031;SDS011;14580;52.918;9.214;2023-03-23T07:40:25;3.73;;;3.20;;
27031;SDS011;14580;52.918;9.214;2023-03-23T07:43:50;4.23;;;3.37;;
27031;SDS011;14580;52.918;9.214;2023-03-23T07:47:15;6.10;;;4.00;;
27031;SDS011;14580;52.918;9.214;2023-03-23T07:50:40;4.93;;;3.90;;
27031;SDS011;14580;52.918;9.214;2023-03-23T07:54:05;5.30;;;4.23;;
27031;SDS011;14580;52.918;9.214;2023-03-23T07:57:31;4.33;;;3.53;;
27031;SDS011;14580;52.918;9.214;2023-03-23T08:00:57;3.53;;;3.23;;
27031;SDS011;14580;52.918;9.214;2023-03-23T08:04:23;4.70;;;3.30;;
27031;SDS011;14580;52.918;9.214;2023-03-23T08:07:48;1.47;;;1.37;;
27031;SDS011;14580;52.918;9.214;2023-03-23T08:11:13;2.03;;;0.97;;
27031;SDS011;14580;52.918;9.214;2023-03-23T08:14:38;3.07;;;1.17;;
27031;SDS011;14580;52.918;9.214;2023-03-23T08:18:03;1.73;;;1.00;;
27031;SDS011;14580;52.918;9.214;2023-03-23T08:21:27;3.40;;;0.80;;
27031;SDS011;14580;52.918;9.214;2023-03-23T08:24:54;1.77;;;1.00;;
27031;SDS011;14580;52.918;9.214;2023-03-23T08:28:19;2.63;;;1.27;;
27031;SDS011;14580;52.918;9.214;2023-03-23T08:31:44;3.43;;;0.97;;
27031;SDS011;14580;52.918;9.214;2023-03-23T08:35:09;4.30;;;1.07;;
27031;SDS011;14580;52.918;9.214;2023-03-23T08:38:35;2.73;;;1.20;;
27031;SDS011;14580;52.918;9.214;2023-03-23T08:41:59;3.60;;;1.10;;
27031;SDS011;14580;52.918;9.214;2023-03-23T08:45:24;5.60;;;1.60;;
27031;SDS011;14580;52.918;9.214;2023-03-23T08:48:49;3.33;;;1.57;;
27031;SDS011;14580;52.918;9.214;2023-03-23T08:52:18;4.33;;;1.50;;
27031;SDS011;14580;52.918;9.214;2023-03-23T08:55:43;5.83;;;1.40;;
27031;SDS011;14580;52.918;9.214;2023-03-23T08:59:09;3.20;;;1.40;;
27031;SDS011;14580;52.918;9.214;2023-03-23T09:02:41;3.17;;;1.97;;
27031;SDS011;14580;52.918;9.214;2023-03-23T09:06:07;7.43;;;1.73;;
27031;SDS011;14580;52.918;9.214;2023-03-23T09:09:34;3.90;;;1.57;;
27031;SDS011;14580;52.918;9.214;2023-03-23T09:12:59;5.50;;;1.50;;
27031;SDS011;14580;52.918;9.214;2023-03-23T09:16:24;1.97;;;1.37;;
27031;SDS011;14580;52.918;9.214;2023-03-23T09:19:49;2.47;;;1.37;;
27031;SDS011;14580;52.918;9.214;2023-03-23T09:23:14;2.57;;;1.37;;
27031;SDS011;14580;52.918;9.214;2023-03-23T09:26:39;4.87;;;1.23;;
27031;SDS011;14580;52.918;9.214;2023-03-23T09:30:06;2.47;;;1.10;;
27031;SDS011;14580;52.918;9.214;2023-03-23T09:33:32;2.63;;;1.50;;
27031;SDS011;14580;52.918;9.214;2023-03-23T09:37:00;3.60;;;0.80;;
27031;SDS011;14580;52.918;9.214;2023-03-23T09:40:39;5.23;;;1.13;;
27031;SDS011;14580;52.918;9.214;2023-03-23T09:55:21;3.10;;;1.30;;
27031;SDS011;14580;52.918;9.214;2023-03-23T09:58:58;6.17;;;1.83;;
27031;SDS011;14580;52.918;9.214;2023-03-23T10:06:16;5.30;;;1.63;;
27031;SDS011;14580;52.918;9.214;2023-03-23T10:09:44;3.97;;;1.33;;
27031;SDS011;14580;52.918;9.214;2023-03-23T10:13:24;9.57;;;2.00;;
27031;SDS011;14580;52.918;9.214;2023-03-23T10:21:16;6.13;;;1.80;;
27031;SDS011;14580;52.918;9.214;2023-03-23T10:24:51;3.43;;;1.50;;
27031;SDS011;14580;52.918;9.214;2023-03-23T10:28:48;6.60;;;2.27;;
27031;SDS011;14580;52.918;9.214;2023-03-23T10:32:36;7.23;;;1.83;;
27031;SDS011;14580;52.918;9.214;2023-03-23T10:36:27;7.77;;;2.27;;
27031;SDS011;14580;52.918;9.214;2023-03-23T10:39:57;6.50;;;2.13;;
27031;SDS011;14580;52.918;9.214;2023-03-23T10:43:46;8.47;;;2.13;;
27031;SDS011;14580;52.918;9.214;2023-03-23T10:47:11;5.73;;;1.97;;
27031;SDS011;14580;52.918;9.214;2023-03-23T10:50:40;4.30;;;1.93;;
27031;SDS011;14580;52.918;9.214;2023-03-23T10:54:09;5.63;;;1.83;;
27031;SDS011;14580;52.918;9.214;2023-03-23T10:57:43;13.90;;;2.67;;
27031;SDS011;14580;52.918;9.214;2023-03-23T11:01:11;6.00;;;2.60;;
27031;SDS011;14580;52.918;9.214;2023-03-23T11:05:00;4.63;;;2.00;;
27031;SDS011;14580;52.918;9.214;2023-03-23T11:08:50;10.00;;;2.63;;
27031;SDS011;14580;52.918;9.214;2023-03-23T11:12:21;6.70;;;2.63;;
27031;SDS011;14580;52.918;9.214;2023-03-23T11:15:48;5.73;;;2.07;;
27031;SDS011;14580;52.918;9.214;2023-03-23T11:19:22;7.30;;;2.47;;
27031;SDS011;14580;52.918;9.214;2023-03-23T11:22:52;7.23;;;2.87;;
27031;SDS011;14580;52.918;9.214;2023-03-23T11:29:52;5.10;;;2.83;;
27031;SDS011;14580;52.918;9.214;2023-03-23T11:33:21;6.90;;;2.70;;
27031;SDS011;14580;52.918;9.214;2023-03-23T11:36:53;4.13;;;2.23;;
27031;SDS011;14580;52.918;9.214;2023-03-23T11:40:24;4.03;;;2.10;;
27031;SDS011;14580;52.918;9.214;2023-03-23T11:43:57;6.67;;;2.27;;
27031;SDS011;14580;52.918;9.214;2023-03-23T11:47:59;8.80;;;2.93;;
27031;SDS011;14580;52.918;9.214;2023-03-23T11:51:48;4.90;;;2.60;;
27031;SDS011;14580;52.918;9.214;2023-03-23T11:55:36;5.40;;;2.43;;
27031;SDS011;14580;52.918;9.214;2023-03-23T11:59:16;5.47;;;2.10;;
27031;SDS011;14580;52.918;9.214;2023-03-23T12:02:57;6.37;;;2.40;;
27031;SDS011;14580;52.918;9.214;2023-03-23T12:06:30;2.10;;;1.87;;
27031;SDS011;14580;52.918;9.214;2023-03-23T12:14:14;4.87;;;2.53;;
27031;SDS011;14580;52.918;9.214;2023-03-23T12:18:03;5.47;;;2.27;;
27031;SDS011;14580;52.918;9.214;2023-03-23T12:22:14;5.87;;;2.40;;
27031;SDS011;14580;52.918;9.214;2023-03-23T12:49:44;2.30;;;1.20;;
27031;SDS011;14580;52.918;9.214;2023-03-23T12:53:32;3.43;;;1.27;;
27031;SDS011;14580;52.918;9.214;2023-03-23T13:00:56;2.17;;;1.30;;
27031;SDS011;14580;52.918;9.214;2023-03-23T13:04:30;1.80;;;1.00;;
27031;SDS011;14580;52.918;9.214;2023-03-23T13:12:04;1.97;;;1.70;;
27031;SDS011;14580;52.918;9.214;2023-03-23T13:23:22;2.33;;;1.30;;
27031;SDS011;14580;52.918;9.214;2023-03-23T13:26:51;3.70;;;1.40;;
27031;SDS011;14580;52.918;9.214;2023-03-23T13:30:23;2.13;;;1.10;;
27031;SDS011;14580;52.918;9.214;2023-03-23T13:34:43;2.30;;;1.00;;
27031;SDS011;14580;52.918;9.214;2023-03-23T13:37:51;2.63;;;1.20;;
27031;SDS011;14580;52.918;9.214;2023-03-23T13:41:17;3.87;;;1.03;;
27031;SDS011;14580;52.918;9.214;2023-03-23T13:59:35;2.50;;;1.30;;
27031;SDS011;14580;52.918;9.214;2023-03-23T14:07:07;2.97;;;1.37;;
27031;SDS011;14580;52.918;9.214;2023-03-23T14:15:19;4.57;;;1.10;;
27031;SDS011;14580;52.918;9.214;2023-03-23T14:18:53;2.03;;;0.90;;
27031;SDS011;14580;52.918;9.214;2023-03-23T14:22:28;3.27;;;1.03;;
27031;SDS011;14580;52.918;9.214;2023-03-23T14:26:01;1.43;;;1.00;;
27031;SDS011;14580;52.918;9.214;2023-03-23T14:29:33;4.03;;;1.40;;
27031;SDS011;14580;52.918;9.214;2023-03-23T14:33:03;5.63;;;1.47;;
27031;SDS011;14580;52.918;9.214;2023-03-23T14:36:46;5.57;;;1.17;;
27031;SDS011;14580;52.918;9.214;2023-03-23T14:40:16;4.53;;;1.10;;
27031;SDS011;14580;52.918;9.214;2023-03-23T14:43:42;1.47;;;0.87;;
27031;SDS011;14580;52.918;9.214;2023-03-23T14:47:30;4.57;;;1.10;;
27031;SDS011;14580;52.918;9.214;2023-03-23T14:51:02;6.90;;;1.73;;
27031;SDS011;14580;52.918;9.214;2023-03-23T14:54:31;3.13;;;1.00;;
27031;SDS011;14580;52.918;9.214;2023-03-23T14:58:05;6.03;;;1.10;;
27031;SDS011;14580;52.918;9.214;2023-03-23T15:01:34;4.23;;;1.30;;
27031;SDS011;14580;52.918;9.214;2023-03-23T15:05:03;1.53;;;1.10;;
27031;SDS011;14580;52.918;9.214;2023-03-23T15:08:42;1.97;;;0.87;;
27031;SDS011;14580;52.918;9.214;2023-03-23T15:12:17;2.97;;;1.20;;
27031;SDS011;14580;52.918;9.214;2023-03-23T15:15:47;3.17;;;1.37;;
27031;SDS011;14580;52.918;9.214;2023-03-23T15:19:17;2.80;;;1.07;;
27031;SDS011;14580;52.918;9.214;2023-03-23T15:22:57;4.13;;;1.20;;
27031;SDS011;14580;52.918;9.214;2023-03-23T15:26:47;3.67;;;1.00;;
27031;SDS011;14580;52.918;9.214;2023-03-23T15:33:49;4.30;;;1.03;;
27031;SDS011;14580;52.918;9.214;2023-03-23T15:37:25;1.90;;;1.17;;
27031;SDS011;14580;52.918;9.214;2023-03-23T15:41:01;2.83;;;1.37;;
27031;SDS011;14580;52.918;9.214;2023-03-23T15:44:30;1.87;;;0.90;;
27031;SDS011;14580;52.918;9.214;2023-03-23T15:48:17;3.83;;;0.97;;
27031;SDS011;14580;52.918;9.214;2023-03-23T15:51:46;1.77;;;1.03;;
27031;SDS011;14580;52.918;9.214;2023-03-23T15:55:18;4.87;;;1.13;;
27031;SDS011;14580;52.918;9.214;2023-03-23T15:58:51;2.97;;;1.00;;
27031;SDS011;14580;52.918;9.214;2023-03-23T16:02:18;1.70;;;1.10;;
27031;SDS011;14580;52.918;9.214;2023-03-23T16:05:51;2.67;;;1.20;;
27031;SDS011;14580;52.918;9.214;2023-03-23T16:09:25;5.20;;;0.90;;
27031;SDS011;14580;52.918;9.214;2023-03-23T16:13:01;4.37;;;1.00;;
27031;SDS011;14580;52.918;9.214;2023-03-23T16:20:21;2.00;;;0.80;;
27031;SDS011;14580;52.918;9.214;2023-03-23T16:23:46;3.40;;;1.00;;
27031;SDS011;14580;52.918;9.214;2023-03-23T16:27:15;2.57;;;1.10;;
27031;SDS011;14580;52.918;9.214;2023-03-23T16:30:42;0.87;;;0.70;;
27031;SDS011;14580;52.918;9.214;2023-03-23T16:34:07;2.80;;;1.00;;
27031;SDS011;14580;52.918;9.214;2023-03-23T16:37:33;2.47;;;0.90;;
27031;SDS011;14580;52.918;9.214;2023-03-23T16:40:59;3.17;;;0.90;;
27031;SDS011;14580;52.918;9.214;2023-03-23T16:44:24;3.20;;;1.30;;
27031;SDS011;14580;52.918;9.214;2023-03-23T16:47:55;2.07;;;1.37;;
27031;SDS011;14580;52.918;9.214;2023-03-23T16:51:20;3.07;;;1.60;;
27031;SDS011;14580;52.918;9.214;2023-03-23T16:54:48;3.63;;;1.27;;
27031;SDS011;14580;52.918;9.214;2023-03-23T16:58:15;3.30;;;1.50;;
27031;SDS011;14580;52.918;9.214;2023-03-23T17:01:40;5.70;;;2.63;;
27031;SDS011;14580;52.918;9.214;2023-03-23T17:05:06;1.97;;;1.77;;
27031;SDS011;14580;52.918;9.214;2023-03-23T17:08:31;3.67;;;2.20;;
27031;SDS011;14580;52.918;9.214;2023-03-23T17:11:55;2.77;;;2.20;;
27031;SDS011;14580;52.918;9.214;2023-03-23T17:15:24;3.07;;;2.40;;
27031;SDS011;14580;52.918;9.214;2023-03-23T17:18:49;3.27;;;1.90;;
27031;SDS011;14580;52.918;9.214;2023-03-23T17:22:14;2.10;;;1.40;;
27031;SDS011;14580;52.918;9.214;2023-03-23T17:25:38;3.07;;;1.60;;
27031;SDS011;14580;52.918;9.214;2023-03-23T17:29:03;3.37;;;1.50;;
27031;SDS011;14580;52.918;9.214;2023-03-23T17:32:29;1.80;;;1.10;;
27031;SDS011;14580;52.918;9.214;2023-03-23T17:35:54;1.27;;;1.03;;
27031;SDS011;14580;52.918;9.214;2023-03-23T17:39:18;3.60;;;1.30;;
27031;SDS011;14580;52.918;9.214;2023-03-23T17:42:47;3.20;;;1.10;;
27031;SDS011;14580;52.918;9.214;2023-03-23T17:46:14;3.87;;;2.00;;
27031;SDS011;14580;52.918;9.214;2023-03-23T17:49:39;3.27;;;1.07;;
27031;SDS011;14580;52.918;9.214;2023-03-23T17:53:04;1.33;;;1.00;;
27031;SDS011;14580;52.918;9.214;2023-03-23T17:56:30;2.60;;;1.00;;
27031;SDS011;14580;52.918;9.214;2023-03-23T18:00:18;7.90;;;4.10;;
27031;SDS011;14580;52.918;9.214;2023-03-23T18:03:43;3.00;;;1.40;;
27031;SDS011;14580;52.918;9.214;2023-03-23T18:07:07;3.40;;;1.63;;
27031;SDS011;14580;52.918;9.214;2023-03-23T18:10:37;2.80;;;1.03;;
27031;SDS011;14580;52.918;9.214;2023-03-23T18:14:04;3.60;;;1.03;;
27031;SDS011;14580;52.918;9.214;2023-03-23T18:17:29;2.00;;;1.30;;
27031;SDS011;14580;52.918;9.214;2023-03-23T18:21:02;2.17;;;1.50;;
27031;SDS011;14580;52.918;9.214;2023-03-23T18:24:31;1.67;;;1.57;;
27031;SDS011;14580;52.918;9.214;2023-03-23T18:27:56;3.33;;;2.10;;
27031;SDS011;14580;52.918;9.214;2023-03-23T18:31:21;2.47;;;1.60;;
27031;SDS011;14580;52.918;9.214;2023-03-23T18:34:49;2.03;;;1.83;;
27031;SDS011;14580;52.918;9.214;2023-03-23T18:38:20;10.83;;;2.10;;
27031;SDS011;14580;52.918;9.214;2023-03-23T18:41:45;2.33;;;1.80;;
27031;SDS011;14580;52.918;9.214;2023-03-23T18:45:13;1.70;;;1.60;;
27031;SDS011;14580;52.918;9.214;2023-03-23T18:48:41;2.60;;;2.03;;
27031;SDS011;14580;52.918;9.214;2023-03-23T18:52:06;3.77;;;2.20;;
27031;SDS011;14580;52.918;9.214;2023-03-23T18:55:33;2.90;;;2.30;;
27031;SDS011;14580;52.918;9.214;2023-03-23T18:58:57;5.83;;;2.23;;
27031;SDS011;14580;52.918;9.214;2023-03-23T19:02:25;2.83;;;2.50;;
27031;SDS011;14580;52.918;9.214;2023-03-23T19:05:55;3.00;;;2.67;;
27031;SDS011;14580;52.918;9.214;2023-03-23T19:09:31;3.17;;;2.87;;
27031;SDS011;14580;52.918;9.214;2023-03-23T19:13:04;5.20;;;3.30;;
27031;SDS011;14580;52.918;9.214;2023-03-23T19:16:30;4.43;;;3.40;;
27031;SDS011;14580;52.918;9.214;2023-03-23T19:19:55;3.83;;;3.43;;
27031;SDS011;14580;52.918;9.214;2023-03-23T19:23:23;4.97;;;3.93;;
27031;SDS011;14580;52.918;9.214;2023-03-23T19:26:50;6.13;;;3.87;;
27031;SDS011;14580;52.918;9.214;2023-03-23T19:30:16;5.97;;;5.10;;
27031;SDS011;14580;52.918;9.214;2023-03-23T19:33:43;5.93;;;4.70;;
27031;SDS011;14580;52.918;9.214;2023-03-23T19:37:08;6.70;;;4.70;;
27031;SDS011;14580;52.918;9.214;2023-03-23T19:40:35;6.80;;;5.80;;
27031;SDS011;14580;52.918;9.214;2023-03-23T19:44:05;7.33;;;5.30;;
27031;SDS011;14580;52.918;9.214;2023-03-23T19:47:33;8.83;;;7.23;;
27031;SDS011;14580;52.918;9.214;2023-03-23T19:50:58;8.70;;;6.70;;
27031;SDS011;14580;52.918;9.214;2023-03-23T19:54:23;9.97;;;7.40;;
27031;SDS011;14580;52.918;9.214;2023-03-23T19:57:48;10.27;;;6.40;;
27031;SDS011;14580;52.918;9.214;2023-03-23T20:01:13;11.77;;;7.07;;
27031;SDS011;14580;52.918;9.214;2023-03-23T20:04:38;14.60;;;9.77;;
27031;SDS011;14580;52.918;9.214;2023-03-23T20:08:04;17.93;;;12.13;;
27031;SDS011;14580;52.918;9.214;2023-03-23T20:11:30;13.50;;;8.70;;
27031;SDS011;14580;52.918;9.214;2023-03-23T20:14:55;11.50;;;8.50;;
27031;SDS011;14580;52.918;9.214;2023-03-23T20:18:20;9.30;;;6.93;;
27031;SDS011;14580;52.918;9.214;2023-03-23T20:21:45;11.33;;;6.10;;
27031;SDS011;14580;52.918;9.214;2023-03-23T20:25:10;10.07;;;6.07;;
27031;SDS011;14580;52.918;9.214;2023-03-23T20:28:37;7.97;;;5.83;;
27031;SDS011;14580;52.918;9.214;2023-03-23T20:32:03;10.10;;;6.00;;
27031;SDS011;14580;52.918;9.214;2023-03-23T20:35:27;11.07;;;6.87;;
27031;SDS011;14580;52.918;9.214;2023-03-23T20:38:58;11.40;;;7.30;;
27031;SDS011;14580;52.918;9.214;2023-03-23T20:42:23;14.20;;;7.67;;
27031;SDS011;14580;52.918;9.214;2023-03-23T20:45:54;12.90;;;7.80;;
27031;SDS011;14580;52.918;9.214;2023-03-23T20:49:22;11.00;;;7.43;;
27031;SDS011;14580;52.918;9.214;2023-03-23T20:52:47;8.50;;;6.53;;
27031;SDS011;14580;52.918;9.214;2023-03-23T20:56:12;8.47;;;6.47;;
27031;SDS011;14580;52.918;9.214;2023-03-23T20:59:37;11.03;;;6.93;;
27031;SDS011;14580;52.918;9.214;2023-03-23T21:03:03;8.47;;;6.47;;
27031;SDS011;14580;52.918;9.214;2023-03-23T21:06:28;14.33;;;6.10;;
27031;SDS011;14580;52.918;9.214;2023-03-23T21:09:54;10.67;;;6.60;;
27031;SDS011;14580;52.918;9.214;2023-03-23T21:13:21;10.03;;;6.50;;
27031;SDS011;14580;52.918;9.214;2023-03-23T21:16:46;10.60;;;7.13;;
27031;SDS011;14580;52.918;9.214;2023-03-23T21:20:11;8.03;;;6.13;;
27031;SDS011;14580;52.918;9.214;2023-03-23T21:23:38;7.10;;;5.87;;
27031;SDS011;14580;52.918;9.214;2023-03-23T21:27:04;11.53;;;6.07;;
27031;SDS011;14580;52.918;9.214;2023-03-23T21:30:30;7.77;;;6.00;;
27031;SDS011;14580;52.918;9.214;2023-03-23T21:33:57;9.23;;;5.67;;
27031;SDS011;14580;52.918;9.214;2023-03-23T21:37:26;7.73;;;5.33;;
27031;SDS011;14580;52.918;9.214;2023-03-23T21:40:52;9.50;;;4.90;;
27031;SDS011;14580;52.918;9.214;2023-03-23T21:44:19;8.03;;;4.43;;
27031;SDS011;14580;52.918;9.214;2023-03-23T21:47:46;6.93;;;4.53;;
27031;SDS011;14580;52.918;9.214;2023-03-23T21:51:15;7.90;;;4.60;;
27031;SDS011;14580;52.918;9.214;2023-03-23T21:54:45;4.50;;;4.00;;
27031;SDS011;14580;52.918;9.214;2023-03-23T21:58:18;5.77;;;4.47;;
27031;SDS011;14580;52.918;9.214;2023-03-23T22:01:44;5.37;;;3.73;;
27031;SDS011;14580;52.918;9.214;2023-03-23T22:05:09;6.77;;;3.43;;
27031;SDS011;14580;52.918;9.214;2023-03-23T22:08:37;5.70;;;3.50;;
27031;SDS011;14580;52.918;9.214;2023-03-23T22:12:05;3.73;;;2.90;;
27031;SDS011;14580;52.918;9.214;2023-03-23T22:15:31;4.67;;;3.30;;
27031;SDS011;14580;52.918;9.214;2023-03-23T22:18:56;6.87;;;3.17;;
27031;SDS011;14580;52.918;9.214;2023-03-23T22:22:24;5.53;;;2.93;;
27031;SDS011;14580;52.918;9.214;2023-03-23T22:25:50;4.57;;;2.73;;
27031;SDS011;14580;52.918;9.214;2023-03-23T22:29:15;4.00;;;2.57;;
27031;SDS011;14580;52.918;9.214;2023-03-23T22:32:40;3.47;;;2.30;;
27031;SDS011;14580;52.918;9.214;2023-03-23T22:36:06;3.70;;;2.67;;
27031;SDS011;14580;52.918;9.214;2023-03-23T22:39:32;3.87;;;2.63;;
27031;SDS011;14580;52.918;9.214;2023-03-23T22:42:57;4.77;;;2.53;;
27031;SDS011;14580;52.918;9.214;2023-03-23T22:46:22;4.57;;;2.57;;
27031;SDS011;14580;52.918;9.214;2023-03-23T22:49:47;3.17;;;2.13;;
27031;SDS011;14580;52.918;9.214;2023-03-23T22:53:12;3.67;;;2.50;;
27031;SDS011;14580;52.918;9.214;2023-03-23T22:56:38;3.03;;;2.30;;
27031;SDS011;14580;52.918;9.214;2023-03-23T23:00:04;5.33;;;2.33;;
27031;SDS011;14580;52.918;9.214;2023-03-23T23:03:34;5.47;;;2.33;;